Time;durP1;ratioP1;P1;durP2;ratioP2;P2;SDS_P1;SDS_P2;PMS_P1;PMS_P2;Temp;Humidity;BMP_temperature;BMP_pressure;BME280_temperature;BME280_humidity;BME280_pressure;Samples;Min_cycle;Max_cycle;Signal;HPM_P1;HPM_P2
2021/11/07 00:00:12;;;;;;;69.82;22.35;;;;;;;3.13;87.18;97045.59;5108374;27;20506;-70
2021/11/07 00:02:52;;;;;;;84.75;22.77;;;;;;;3.07;87.31;97038.53;5108094;28;20047;-69
2021/11/07 00:05:26;;;;;;;83.85;23.98;;;;;;;3.12;88.11;97025.16;5108167;28;20079;-69
2021/11/07 00:08:04;;;;;;;73.47;25.00;;;;;;;3.14;87.68;97036.50;5107977;27;20100;-69
2021/11/07 00:10:36;;;;;;;67.75;25.25;;;;;;;3.11;88.18;97039.66;5109088;28;20468;-69
2021/11/07 00:13:12;;;;;;;60.08;22.10;;;;;;;3.05;88.66;97030.75;5087040;28;20067;-70
2021/11/07 00:15:39;;;;;;;54.95;24.88;;;;;;;3.06;89.59;97026.16;5088013;28;20063;-68
2021/11/07 00:18:08;;;;;;;116.63;26.95;;;;;;;3.11;89.63;97026.22;5087548;28;20055;-69
2021/11/07 00:20:36;;;;;;;92.30;26.33;;;;;;;3.17;89.34;97017.13;5087837;28;20557;-68
2021/11/07 00:23:11;;;;;;;64.93;24.77;;;;;;;3.21;89.29;97022.81;5107604;28;20066;-69
2021/11/07 00:25:46;;;;;;;62.65;25.45;;;;;;;3.28;89.47;97024.22;5106225;28;20079;-69
2021/11/07 00:28:20;;;;;;;53.33;24.13;;;;;;;3.37;89.34;97033.47;5083597;28;20617;-69
2021/11/07 00:30:51;;;;;;;83.15;24.15;;;;;;;3.34;88.63;97042.06;5087472;28;20078;-69
2021/11/07 00:33:23;;;;;;;77.55;23.67;;;;;;;3.35;87.61;97046.38;5087192;28;20079;-69
2021/11/07 00:38:48;;;;;;;75.75;24.10;;;;;;;3.29;87.22;97052.78;5049880;28;20052;-69
2021/11/07 00:41:25;;;;;;;79.85;23.23;;;;;;;3.09;86.78;97048.00;5088015;28;20052;-69
2021/11/07 00:43:58;;;;;;;81.50;22.45;;;;;;;2.90;87.38;97038.63;5086764;28;20567;-69
2021/11/07 00:46:28;;;;;;;74.10;23.33;;;;;;;2.78;88.20;97029.91;5087125;28;20054;-69
2021/11/07 00:48:58;;;;;;;97.70;23.85;;;;;;;2.74;88.78;97039.53;5087027;28;20078;-69
2021/11/07 00:51:29;;;;;;;89.32;23.52;;;;;;;2.73;89.07;97048.66;5087087;28;20127;-69
2021/11/07 00:54:09;;;;;;;82.18;22.83;;;;;;;2.72;89.39;97058.63;5087058;28;20044;-69
2021/11/07 00:56:42;;;;;;;116.38;23.50;;;;;;;2.61;88.72;97073.81;5086259;28;20079;-69
2021/11/07 00:59:29;;;;;;;;;;;;;;;2.47;88.66;97071.72;5087718;28;20117;-69
2021/11/07 01:02:02;;;;;;;54.33;19.88;;;;;;;2.38;89.35;97071.34;5086643;28;19924;-68
2021/11/07 01:04:29;;;;;;;73.38;23.42;;;;;;;2.41;90.15;97067.34;5086447;28;20091;-69
2021/11/07 01:06:56;;;;;;;90.28;23.75;;;;;;;2.44;90.40;97061.47;5087037;28;20044;-69
2021/11/07 01:09:23;;;;;;;68.97;24.20;;;;;;;2.50;90.60;97060.47;5086441;28;20048;-69
2021/11/07 01:11:51;;;;;;;85.38;25.30;;;;;;;2.60;91.02;97060.59;5087240;28;20052;-69
2021/11/07 01:14:17;;;;;;;53.90;24.08;;;;;;;2.68;91.16;97068.25;5085643;28;20051;-69
2021/11/07 01:16:44;;;;;;;68.18;24.08;;;;;;;2.73;90.78;97062.94;5087721;28;20058;-69
2021/11/07 01:19:11;;;;;;;74.95;21.48;;;;;;;2.55;89.82;97071.28;5086184;28;20487;-69
2021/11/07 01:21:40;;;;;;;52.60;20.65;;;;;;;2.44;90.02;97070.34;5087660;28;20476;-69
2021/11/07 01:24:12;;;;;;;57.10;22.63;;;;;;;2.47;90.83;97060.97;5085223;28;20048;-70
2021/11/07 01:26:40;;;;;;;65.43;25.00;;;;;;;2.53;91.37;97062.66;5086934;28;20048;-69
2021/11/07 01:29:13;;;;;;;62.33;23.40;;;;;;;2.61;91.33;97046.13;5086072;28;20058;-69
2021/11/07 01:31:40;;;;;;;67.50;23.05;;;;;;;2.67;90.74;97053.19;5086606;28;20048;-69
2021/11/07 01:34:13;;;;;;;50.97;21.30;;;;;;;2.68;90.26;97052.09;5086038;28;20193;-69
2021/11/07 01:36:44;;;;;;;45.47;20.40;;;;;;;2.61;89.65;97040.75;5088929;28;20052;-69
2021/11/07 01:39:16;;;;;;;43.08;19.35;;;;;;;2.55;89.93;97030.97;5091210;28;20121;-69
2021/11/07 01:41:57;;;;;;;48.97;21.45;;;;;;;2.63;90.23;97030.53;5090282;28;20054;-69
2021/11/07 01:44:26;;;;;;;64.38;22.00;;;;;;;2.69;90.03;97016.06;5090340;28;20051;-69
2021/11/07 01:46:56;;;;;;;62.47;20.23;;;;;;;2.64;89.16;97002.56;5091026;28;20047;-69
2021/11/07 01:49:26;;;;;;;54.50;19.75;;;;;;;2.59;89.25;97010.56;5090098;28;20162;-68
2021/11/07 01:51:53;;;;;;;49.28;20.48;;;;;;;2.50;89.11;97017.44;5091171;28;20052;-69
2021/11/07 01:54:25;;;;;;;51.20;18.10;;;;;;;2.33;88.89;97018.31;5089089;28;20134;-68
2021/11/07 01:56:52;;;;;;;40.88;17.50;;;;;;;2.10;88.33;97013.19;5090976;28;20055;-69
2021/11/07 01:59:19;;;;;;;43.42;18.38;;;;;;;1.99;88.64;97001.50;5089605;28;20051;-70
2021/11/07 02:01:51;;;;;;;34.13;17.60;;;;;;;2.02;89.49;97011.72;5090557;28;20752;-69
2021/11/07 02:04:18;;;;;;;45.03;18.02;;;;;;;2.03;89.83;97015.22;5089958;28;20051;-70
2021/11/07 02:06:45;;;;;;;45.95;19.35;;;;;;;2.03;90.06;96996.41;5090302;28;20147;-69
2021/11/07 02:09:12;;;;;;;58.83;20.05;;;;;;;2.08;90.21;96988.44;5090225;28;20051;-69
2021/11/07 02:11:38;;;;;;;66.13;19.50;;;;;;;1.99;90.13;96979.19;5089704;28;20058;-70
2021/11/07 02:14:07;;;;;;;56.05;20.02;;;;;;;1.95;90.40;96980.75;5089872;28;20133;-69
2021/11/07 02:16:33;;;;;;;45.50;19.83;;;;;;;1.99;91.26;96989.94;5089929;28;20163;-69
2021/11/07 02:19:01;;;;;;;59.63;19.30;;;;;;;1.95;91.03;97004.91;5091076;28;20074;-69
2021/11/07 02:21:29;;;;;;;52.85;19.92;;;;;;;1.97;91.38;97014.34;5089418;28;20044;-69
2021/11/07 02:23:56;;;;;;;57.22;19.75;;;;;;;1.93;91.81;96994.44;5089954;28;20102;-69
2021/11/07 02:26:22;;;;;;;54.70;19.70;;;;;;;1.93;91.76;97001.63;5090129;28;20051;-68
2021/11/07 02:28:49;;;;;;;41.83;18.45;;;;;;;1.92;91.70;96995.47;5089897;28;20058;-69
2021/11/07 02:31:19;;;;;;;37.83;17.60;;;;;;;1.85;91.21;96977.91;5089443;28;20048;-69
2021/11/07 02:33:46;;;;;;;49.75;19.58;;;;;;;1.80;91.86;96974.09;5089444;28;20048;-69
2021/11/07 02:36:16;;;;;;;71.68;17.92;;;;;;;1.75;91.11;96968.63;5089740;28;20063;-71
2021/11/07 02:38:45;;;;;;;48.10;18.15;;;;;;;1.70;91.36;96973.94;5089583;28;20132;-70
2021/11/07 02:41:12;;;;;;;39.50;18.70;;;;;;;1.68;91.58;96962.63;5090055;28;20085;-68
2021/11/07 02:43:41;;;;;;;38.38;17.17;;;;;;;1.70;91.55;96959.69;5088598;28;20070;-69
2021/11/07 02:46:10;;;;;;;49.80;18.55;;;;;;;1.71;91.76;96959.44;5089745;28;20048;-68
2021/11/07 02:48:36;;;;;;;36.67;18.60;;;;;;;1.70;91.89;96947.09;5088448;28;20052;-71
2021/11/07 02:51:03;;;;;;;66.68;20.52;;;;;;;1.73;92.29;96949.28;5089436;28;20044;-69
2021/11/07 02:53:30;;;;;;;54.38;21.20;;;;;;;1.78;92.42;96933.25;5089267;28;20055;-69
2021/11/07 02:55:58;;;;;;;72.30;21.05;;;;;;;1.77;92.42;96939.66;5089252;28;20101;-68
2021/11/07 02:58:24;;;;;;;58.05;20.70;;;;;;;1.87;92.38;96938.19;5089268;28;20054;-69
2021/11/07 03:00:51;;;;;;;66.78;21.63;;;;;;;1.91;92.54;96931.25;5089169;28;20054;-69
2021/11/07 03:03:18;;;;;;;56.47;20.33;;;;;;;1.95;92.78;96949.31;5089198;28;20496;-69
2021/11/07 03:05:45;;;;;;;76.70;22.23;;;;;;;1.94;92.55;96936.16;5088587;28;20056;-69
2021/11/07 03:08:11;;;;;;;57.17;21.10;;;;;;;1.95;92.48;96924.34;5089491;28;20521;-71
2021/11/07 03:10:38;;;;;;;42.47;21.45;;;;;;;2.02;92.93;96925.75;5088862;28;20048;-69
2021/11/07 03:13:08;;;;;;;53.95;22.77;;;;;;;2.11;93.31;96923.47;5088721;28;20120;-69
2021/11/07 03:15:36;;;;;;;48.50;21.70;;;;;;;2.15;93.01;96923.78;5089078;28;20052;-69
2021/11/07 03:18:02;;;;;;;55.53;22.25;;;;;;;2.17;92.78;96909.03;5089524;28;20044;-69
2021/11/07 03:20:29;;;;;;;58.08;21.35;;;;;;;2.19;92.43;96898.81;5090237;28;20060;-69
2021/11/07 03:22:56;;;;;;;50.05;21.05;;;;;;;2.26;92.29;96910.22;5088286;28;20048;-69
2021/11/07 03:25:24;;;;;;;45.15;20.77;;;;;;;2.34;92.35;96903.56;5088738;28;20044;-70
2021/11/07 03:27:52;;;;;;;41.50;21.20;;;;;;;2.43;92.56;96885.13;5088030;28;20077;-69
2021/11/07 03:30:31;;;;;;;42.75;20.70;;;;;;;2.48;92.05;96891.38;5089109;28;20044;-69
2021/11/07 03:33:09;;;;;;;41.47;19.25;;;;;;;2.43;90.50;96888.63;5088320;28;20055;-69
2021/11/07 03:35:36;;;;;;;41.38;19.95;;;;;;;2.30;90.27;96889.84;5088470;28;20124;-70
2021/11/07 03:38:02;;;;;;;35.65;19.70;;;;;;;2.18;90.28;96896.41;5088702;28;20059;-69
2021/11/07 03:40:29;;;;;;;38.25;19.73;;;;;;;2.11;90.57;96895.78;5088420;28;20711;-70
2021/11/07 03:42:57;;;;;;;47.65;20.50;;;;;;;2.09;90.90;96894.16;5088845;28;20060;-69
2021/11/07 03:45:26;;;;;;;34.97;19.30;;;;;;;2.13;91.08;96910.59;5087194;28;20056;-69
2021/11/07 03:47:53;;;;;;;43.35;20.05;;;;;;;2.10;90.68;96919.16;5089236;28;20052;-70
2021/11/07 03:50:24;;;;;;;40.85;20.55;;;;;;;2.06;90.86;96915.34;5087295;28;20051;-69
2021/11/07 03:52:51;;;;;;;39.80;19.35;;;;;;;2.08;90.92;96907.84;5088820;28;20070;-69
2021/11/07 03:55:18;;;;;;;39.08;20.73;;;;;;;2.10;91.19;96900.34;5086764;28;20048;-69
2021/11/07 03:57:44;;;;;;;37.80;20.50;;;;;;;2.12;91.16;96892.84;5088285;28;20056;-70
2021/11/07 04:00:14;;;;;;;39.70;20.08;;;;;;;2.11;91.48;96896.59;5087653;28;20051;-69
2021/11/07 04:02:42;;;;;;;43.38;20.73;;;;;;;2.16;91.93;96893.97;5086581;28;20052;-70
2021/11/07 04:05:10;;;;;;;38.88;21.25;;;;;;;2.25;91.65;96891.66;5088085;28;20119;-70
2021/11/07 04:07:37;;;;;;;37.40;20.20;;;;;;;2.27;91.08;96884.97;5087744;28;20055;-69
2021/11/07 04:10:06;;;;;;;42.13;21.92;;;;;;;2.33;91.18;96861.63;5088571;28;20048;-70
2021/11/07 04:12:33;;;;;;;36.70;19.52;;;;;;;2.38;90.91;96860.88;5087661;28;20040;-69
2021/11/07 04:14:59;;;;;;;37.00;19.33;;;;;;;2.28;90.37;96848.16;5088487;28;20048;-68
2021/11/07 04:17:26;;;;;;;37.20;18.77;;;;;;;2.30;90.60;96835.28;5087669;28;20044;-69
2021/11/07 04:19:53;;;;;;;33.03;17.65;;;;;;;2.26;89.60;96834.16;5088408;28;20051;-69
2021/11/07 04:22:20;;;;;;;32.70;16.92;;;;;;;2.19;89.46;96839.72;5087566;28;20048;-69
2021/11/07 04:24:47;;;;;;;32.35;17.58;;;;;;;2.13;89.50;96848.78;5087579;28;20070;-68
2021/11/07 04:27:13;;;;;;;34.00;17.65;;;;;;;2.10;89.97;96862.75;5090749;28;20674;-69
2021/11/07 04:29:40;;;;;;;33.78;17.95;;;;;;;2.08;89.94;96859.47;5107733;28;20054;-71
2021/11/07 04:32:07;;;;;;;35.47;18.98;;;;;;;2.11;90.35;96859.00;5107914;28;20055;-69
2021/11/07 04:34:34;;;;;;;33.95;18.13;;;;;;;2.18;90.26;96864.97;5107627;28;20062;-69
2021/11/07 04:37:03;;;;;;;34.05;17.25;;;;;;;2.17;90.12;96867.91;5108651;28;20473;-69
2021/11/07 04:39:30;;;;;;;33.63;17.48;;;;;;;2.16;89.98;96867.09;5107495;28;20725;-69
2021/11/07 04:41:56;;;;;;;32.85;16.80;;;;;;;2.12;89.71;96868.66;5108207;28;20055;-69
2021/11/07 04:44:23;;;;;;;34.95;17.90;;;;;;;2.05;90.12;96858.13;5107365;28;20607;-69
2021/11/07 04:46:51;;;;;;;34.80;18.35;;;;;;;2.03;90.38;96856.72;5107648;28;20053;-68
2021/11/07 04:49:17;;;;;;;34.42;18.20;;;;;;;1.99;90.47;96840.31;5107625;27;20134;-68
2021/11/07 04:51:45;;;;;;;36.33;19.35;;;;;;;2.01;90.68;96845.44;5107388;28;20055;-69
2021/11/07 04:54:13;;;;;;;35.40;17.92;;;;;;;1.97;90.92;96842.44;5107794;28;20051;-68
2021/11/07 04:56:40;;;;;;;36.47;18.23;;;;;;;1.93;90.98;96856.59;5106777;28;20051;-69
2021/11/07 04:59:07;;;;;;;40.35;19.48;;;;;;;1.92;91.28;96860.38;5087702;28;20059;-69
2021/11/07 05:01:33;;;;;;;41.33;19.33;;;;;;;1.92;91.49;96863.06;5086854;28;20052;-69
2021/11/07 05:04:00;;;;;;;38.83;18.77;;;;;;;1.92;91.49;96863.84;5087479;28;20114;-69
2021/11/07 05:06:27;;;;;;;34.63;18.45;;;;;;;1.98;91.61;96875.47;5086459;28;20120;-69
2021/11/07 05:08:54;;;;;;;33.30;16.80;;;;;;;1.96;91.42;96873.03;5087303;28;20048;-69
2021/11/07 05:11:22;;;;;;;36.20;17.98;;;;;;;1.95;91.29;96878.69;5086128;28;20071;-69
2021/11/07 05:13:48;;;;;;;32.83;16.83;;;;;;;1.89;91.12;96888.53;5086722;28;20055;-69
2021/11/07 05:16:15;;;;;;;37.63;16.67;;;;;;;1.83;90.94;96884.97;5087172;28;20044;-69
2021/11/07 05:18:41;;;;;;;43.15;18.05;;;;;;;1.84;91.14;96883.09;5086600;28;20054;-69
2021/11/07 05:21:08;;;;;;;39.60;18.83;;;;;;;1.89;91.24;96879.69;5087264;28;20054;-70
2021/11/07 05:23:34;;;;;;;39.03;18.10;;;;;;;1.93;91.45;96881.63;5087559;28;20048;-69
2021/11/07 05:26:01;;;;;;;40.63;19.02;;;;;;;2.04;91.59;96879.88;5087755;28;20593;-69
2021/11/07 05:28:29;;;;;;;39.15;19.88;;;;;;;2.10;91.20;96873.50;5086495;28;20066;-69
2021/11/07 05:30:56;;;;;;;42.50;20.40;;;;;;;2.16;91.27;96872.47;5087053;28;20084;-69
2021/11/07 05:33:23;;;;;;;40.03;18.83;;;;;;;2.22;90.90;96855.34;5086297;28;20063;-69
2021/11/07 05:35:49;;;;;;;43.13;19.05;;;;;;;2.27;90.35;96858.09;5086909;28;20047;-69
2021/11/07 05:38:16;;;;;;;46.25;20.60;;;;;;;2.33;90.44;96857.06;5086582;28;20052;-69
2021/11/07 05:40:43;;;;;;;41.15;19.25;;;;;;;2.40;90.04;96856.06;5086778;28;20056;-69
2021/11/07 05:43:09;;;;;;;40.63;18.95;;;;;;;2.41;90.00;96852.31;5086472;28;20101;-69
2021/11/07 05:45:37;;;;;;;41.80;19.08;;;;;;;2.44;89.65;96846.44;5086393;28;20048;-69
2021/11/07 05:48:06;;;;;;;42.90;19.25;;;;;;;2.44;89.26;96841.06;5087102;28;20044;-69
2021/11/07 05:50:33;;;;;;;39.25;19.52;;;;;;;2.43;89.33;96834.06;5086422;28;20097;-69
2021/11/07 05:52:59;;;;;;;40.00;18.63;;;;;;;2.42;88.76;96827.06;5086799;28;20043;-69
2021/11/07 05:55:26;;;;;;;36.65;17.52;;;;;;;2.42;88.92;96838.63;5086371;28;20044;-69
2021/11/07 05:57:53;;;;;;;37.83;18.30;;;;;;;2.44;88.74;96835.69;5096763;28;20083;-69
2021/11/07 06:00:20;;;;;;;38.83;18.02;;;;;;;2.40;88.38;96832.69;5106816;28;20050;-68
2021/11/07 06:02:49;;;;;;;37.45;18.15;;;;;;;2.37;88.40;96824.31;5107359;28;20064;-69
2021/11/07 06:05:16;;;;;;;37.45;18.33;;;;;;;2.34;88.36;96831.00;5107042;28;20044;-69
2021/11/07 06:07:43;;;;;;;35.67;18.05;;;;;;;2.32;88.71;96817.03;5106321;28;20056;-69
2021/11/07 06:10:10;;;;;;;38.15;18.52;;;;;;;2.33;88.74;96803.31;5107310;28;20048;-69
2021/11/07 06:12:36;;;;;;;35.83;17.05;;;;;;;2.35;88.75;96789.66;5087598;28;20055;-69
2021/11/07 06:15:04;;;;;;;37.22;17.73;;;;;;;2.39;88.80;96784.56;5086451;28;20083;-70
2021/11/07 06:17:30;;;;;;;37.28;18.77;;;;;;;2.45;88.92;96778.16;5086438;28;20055;-69
2021/11/07 06:19:58;;;;;;;39.90;19.27;;;;;;;2.48;88.75;96764.22;5086652;28;20498;-69
2021/11/07 06:22:25;;;;;;;43.47;20.25;;;;;;;2.56;88.90;96742.25;5088115;28;20588;-69
2021/11/07 06:24:52;;;;;;;37.80;18.95;;;;;;;2.54;87.58;96742.50;5089982;28;20648;-68
2021/11/07 06:27:19;;;;;;;38.13;18.60;;;;;;;2.55;87.32;96754.06;5089645;28;20135;-69
2021/11/07 06:29:45;;;;;;;35.08;16.77;;;;;;;2.55;87.32;96767.50;5089754;28;20059;-69
2021/11/07 06:32:13;;;;;;;34.85;17.48;;;;;;;2.53;86.83;96775.81;5089953;28;20055;-69
2021/11/07 06:34:40;;;;;;;31.15;16.13;;;;;;;2.50;87.09;96786.25;5089751;28;20044;-69
2021/11/07 06:37:10;;;;;;;33.63;16.67;;;;;;;2.51;87.50;96793.28;5090120;28;20059;-69
2021/11/07 06:39:37;;;;;;;34.88;17.42;;;;;;;2.56;87.88;96801.41;5089611;28;20056;-69
2021/11/07 06:42:04;;;;;;;33.53;16.83;;;;;;;2.61;88.09;96804.13;5089881;28;20127;-69
2021/11/07 06:44:31;;;;;;;32.20;16.73;;;;;;;2.64;87.63;96814.34;5090294;28;20051;-70
2021/11/07 06:46:58;;;;;;;29.67;15.45;;;;;;;2.64;87.19;96814.34;5089558;28;20532;-69
2021/11/07 06:49:25;;;;;;;28.75;15.20;;;;;;;2.62;86.69;96816.50;5089762;28;20052;-68
2021/11/07 06:51:52;;;;;;;29.52;15.90;;;;;;;2.63;86.76;96823.50;5089405;28;20056;-68
2021/11/07 06:54:21;;;;;;;30.00;15.25;;;;;;;2.58;86.22;96832.31;5089651;28;20055;-70
2021/11/07 06:56:48;;;;;;;28.90;15.00;;;;;;;2.54;86.36;96841.97;5089810;28;20040;-69
2021/11/07 06:59:15;;;;;;;26.73;14.40;;;;;;;2.51;86.33;96847.88;5109835;28;20048;-68
2021/11/07 07:01:42;;;;;;;25.17;13.70;;;;;;;2.44;85.94;96852.63;5108727;27;20055;-69
2021/11/07 07:04:08;;;;;;;27.45;14.77;;;;;;;2.38;86.20;96863.56;5109222;27;20402;-71
2021/11/07 07:06:36;;;;;;;29.05;14.95;;;;;;;2.27;85.92;96860.78;5109132;28;20054;-71
2021/11/07 07:09:05;;;;;;;28.00;15.10;;;;;;;2.22;86.54;96863.41;5109038;28;20601;-68
2021/11/07 07:11:36;;;;;;;27.40;14.93;;;;;;;2.08;86.92;96865.66;5109566;28;20051;-68
2021/11/07 07:14:05;;;;;;;28.38;14.88;;;;;;;1.99;87.16;96869.06;5108726;28;20108;-69
2021/11/07 07:16:39;;;;;;;31.95;15.95;;;;;;;1.93;87.58;96859.28;5110217;28;20052;-70
2021/11/07 07:19:15;;;;;;;32.05;16.35;;;;;;;1.86;87.93;96856.00;5108790;28;20057;-71
2021/11/07 07:21:52;;;;;;;29.85;16.30;;;;;;;1.88;88.33;96869.97;5109911;27;20059;-70
2021/11/07 07:27:38;;;;;;;32.42;17.08;;;;;;;1.88;88.40;96861.91;5059297;28;20115;-71
2021/11/07 07:30:14;;;;;;;33.85;17.55;;;;;;;1.95;88.87;96841.88;5045910;28;20067;-70
2021/11/07 07:35:28;;;;;;;35.28;17.50;;;;;;;2.07;88.12;96841.75;5086543;28;20530;-68
2021/11/07 07:37:56;;;;;;;36.05;18.63;;;;;;;2.10;88.25;96835.88;5088807;28;20097;-68
2021/11/07 07:40:23;;;;;;;35.72;18.63;;;;;;;2.07;88.12;96836.38;5088215;28;20040;-69
2021/11/07 07:42:51;;;;;;;35.17;18.40;;;;;;;2.06;88.38;96832.06;5088794;28;20052;-69
2021/11/07 07:45:18;;;;;;;34.20;18.85;;;;;;;2.04;88.24;96818.09;5087628;28;20048;-69
2021/11/07 07:47:45;;;;;;;35.28;18.13;;;;;;;2.01;88.50;96819.38;5089081;28;20487;-69
2021/11/07 07:50:13;;;;;;;37.67;19.10;;;;;;;2.01;88.61;96821.25;5087694;28;20052;-69
2021/11/07 07:52:40;;;;;;;34.15;18.38;;;;;;;2.07;88.84;96822.94;5088938;28;20079;-69
2021/11/07 07:55:09;;;;;;;39.70;19.17;;;;;;;2.16;88.96;96815.25;5087719;28;20056;-69
2021/11/07 07:57:35;;;;;;;35.63;17.73;;;;;;;2.26;88.57;96813.47;5096573;27;20048;-69
2021/11/07 08:00:06;;;;;;;36.00;19.33;;;;;;;2.21;88.27;96813.41;5108276;28;20055;-71
2021/11/07 08:02:33;;;;;;;33.53;17.10;;;;;;;2.23;88.17;96808.59;5108483;28;20055;-70
2021/11/07 08:04:59;;;;;;;34.47;18.17;;;;;;;2.27;88.30;96814.28;5108827;27;20426;-70
2021/11/07 08:07:27;;;;;;;34.80;18.00;;;;;;;2.31;88.13;96807.34;5107765;28;20051;-69
2021/11/07 08:09:53;;;;;;;37.20;18.05;;;;;;;2.34;88.03;96796.88;5109010;28;20051;-69
2021/11/07 08:12:20;;;;;;;37.60;19.42;;;;;;;2.43;88.30;96799.13;5107713;28;20051;-71
2021/11/07 08:14:47;;;;;;;36.47;18.75;;;;;;;2.49;87.65;96784.66;5109313;28;20043;-70
2021/11/07 08:17:15;;;;;;;34.00;18.67;;;;;;;2.49;86.93;96781.97;5107629;28;20051;-71
2021/11/07 08:19:41;;;;;;;30.77;16.50;;;;;;;2.47;87.03;96766.09;5108866;28;20055;-69
2021/11/07 08:22:08;;;;;;;31.45;16.60;;;;;;;2.54;87.02;96776.63;5107646;28;20047;-69
2021/11/07 08:24:36;;;;;;;35.33;17.90;;;;;;;2.60;87.20;96764.84;5108308;28;20054;-73
2021/11/07 08:27:04;;;;;;;34.25;17.80;;;;;;;2.77;87.32;96759.34;5104138;28;20048;-72
2021/11/07 08:29:31;;;;;;;33.25;17.02;;;;;;;2.77;85.87;96770.91;5087666;28;20109;-73
2021/11/07 08:31:58;;;;;;;34.78;16.45;;;;;;;2.72;86.38;96764.69;5087971;28;20044;-72
2021/11/07 08:34:29;;;;;;;34.53;17.23;;;;;;;2.74;86.59;96762.53;5086942;28;20055;-73
2021/11/07 08:36:59;;;;;;;33.33;16.73;;;;;;;2.77;86.58;96760.16;5088429;28;20105;-73
2021/11/07 08:39:28;;;;;;;29.98;16.25;;;;;;;2.80;86.45;96765.00;5086457;28;20123;-73
2021/11/07 08:41:59;;;;;;;32.70;17.42;;;;;;;2.86;86.31;96758.59;5087993;28;20133;-73
2021/11/07 09:00:59;;;;;;;28.92;14.85;;;;;;;3.56;83.18;96723.44;5107350;28;20584;-73
2021/11/07 09:03:41;;;;;;;30.23;16.13;;;;;;;3.58;82.65;96715.91;5107520;27;20055;-72
2021/11/07 09:06:35;;;;;;;28.17;14.80;;;;;;;3.59;82.54;96706.75;5106394;28;20481;-72
2021/11/07 09:09:07;;;;;;;;;;;;;;;3.74;83.14;96704.09;5108058;28;20131;-74
2021/11/07 09:11:34;;;;;;;30.05;15.73;;;;;;;3.91;82.41;96688.53;5107662;28;19928;-74
2021/11/07 09:14:00;;;;;;;29.38;14.90;;;;;;;4.21;80.62;96676.13;5096643;28;20526;-74
2021/11/07 09:16:27;;;;;;;25.75;14.88;;;;;;;4.58;80.22;96658.84;5087534;28;20142;-74
2021/11/07 09:18:57;;;;;;;25.65;14.32;;;;;;;4.98;77.96;96664.16;5086500;28;20491;-74
2021/11/07 09:21:29;;;;;;;25.88;14.23;;;;;;;5.25;75.99;96663.00;5087186;28;20048;-73
2021/11/07 09:23:57;;;;;;;21.08;12.25;;;;;;;5.17;75.83;96650.09;5086465;28;20873;-71
2021/11/07 09:26:31;;;;;;;25.63;14.05;;;;;;;5.17;76.41;96652.78;5086896;28;20439;-72
2021/11/07 09:29:03;;;;;;;24.38;14.45;;;;;;;5.37;75.99;96644.56;5086930;28;20059;-73
2021/11/07 09:31:37;;;;;;;22.52;14.32;;;;;;;5.68;75.55;96639.00;5086647;28;20487;-73
2021/11/07 09:34:15;;;;;;;22.80;13.73;;;;;;;5.64;74.19;96637.97;5086912;28;20151;-72
2021/11/07 09:36:46;;;;;;;22.65;12.85;;;;;;;5.60;73.84;96636.91;5086726;28;20049;-72
2021/11/07 09:39:30;;;;;;;23.08;12.93;;;;;;;5.68;73.64;96633.63;5083101;28;20055;-72
2021/11/07 09:44:42;;;;;;;19.38;11.48;;;;;;;5.96;72.12;96635.63;5083895;28;20510;-71
2021/11/07 09:47:10;;;;;;;19.25;11.00;;;;;;;6.00;70.16;96636.69;5084341;28;20056;-71
2021/11/07 09:49:44;;;;;;;19.13;11.35;;;;;;;6.04;71.38;96625.28;5086491;28;20531;-71
2021/11/07 09:52:14;;;;;;;17.38;10.57;;;;;;;6.18;69.74;96631.69;5086368;28;20082;-71
2021/11/07 09:54:43;;;;;;;18.35;10.52;;;;;;;6.30;69.06;96621.28;5086598;28;20059;-71
2021/11/07 09:57:16;;;;;;;17.20;10.27;;;;;;;6.41;68.25;96630.13;5088743;28;20048;-71
2021/11/07 09:59:43;;;;;;;16.65;10.05;;;;;;;6.61;68.59;96623.72;5090751;28;20689;-71
2021/11/07 10:02:09;;;;;;;16.33;9.05;;;;;;;6.84;67.06;96622.94;5090201;28;20040;-71
2021/11/07 10:04:37;;;;;;;14.73;9.50;;;;;;;7.02;67.70;96622.19;5090880;28;20526;-71
2021/11/07 10:07:17;;;;;;;13.77;8.77;;;;;;;7.18;65.77;96622.00;5090315;28;20043;-71
2021/11/07 10:09:44;;;;;;;13.75;8.23;;;;;;;7.41;67.22;96629.28;5089754;28;20123;-71
2021/11/07 10:12:16;;;;;;;13.77;8.75;;;;;;;7.64;65.00;96626.84;5089345;28;20051;-71
2021/11/07 10:14:47;;;;;;;11.35;7.75;;;;;;;7.68;63.02;96631.41;5091600;28;20055;-72
2021/11/07 10:17:27;;;;;;;13.55;7.95;;;;;;;7.69;64.08;96629.50;5089451;28;20055;-71
2021/11/07 10:20:02;;;;;;;12.52;7.72;;;;;;;7.58;61.97;96629.63;5091118;28;20044;-71
2021/11/07 10:22:33;;;;;;;12.13;7.75;;;;;;;7.45;61.80;96627.63;5089128;28;20052;-74
2021/11/07 10:24:59;;;;;;;11.02;7.55;;;;;;;7.48;62.22;96637.88;5087430;28;20052;-72
2021/11/07 10:27:26;;;;;;;10.57;6.88;;;;;;;7.41;62.26;96637.41;5103072;28;20127;-72
2021/11/07 10:30:06;;;;;;;11.90;6.70;;;;;;;7.39;62.60;96634.22;5108324;27;20059;-72
2021/11/07 10:32:42;;;;;;;10.30;6.80;;;;;;;7.46;62.40;96639.25;5109216;28;20095;-73
2021/11/07 10:35:28;;;;;;;10.57;6.80;;;;;;;7.43;61.97;96619.00;5108831;27;20399;-72
2021/11/07 10:38:13;;;;;;;11.55;6.90;;;;;;;7.31;62.35;96618.63;5109904;27;20135;-73
2021/11/07 10:40:49;;;;;;;11.05;6.95;;;;;;;7.35;62.40;96619.63;5110059;28;20529;-72
2021/11/07 10:46:32;;;;;;;10.50;6.78;;;;;;;7.44;62.62;96608.94;5110370;27;20047;-72
2021/11/07 10:54:43;;;;;;;12.32;6.47;;;;;;;7.80;61.70;96563.19;5104938;28;20051;-73
2021/11/07 10:57:16;;;;;;;10.32;6.32;;;;;;;7.79;61.41;96561.56;5104424;28;20844;-73
2021/11/07 10:59:44;;;;;;;10.40;6.18;;;;;;;7.72;60.67;96539.44;5090013;28;20074;-73
2021/11/07 11:02:35;;;;;;;7.72;5.25;;;;;;;7.65;59.70;96536.31;5088960;28;20411;-73
2021/11/07 11:05:05;;;;;;;9.02;5.75;;;;;;;7.58;60.68;96534.78;5080338;28;20048;-71
2021/11/07 11:07:32;;;;;;;9.13;5.70;;;;;;;7.67;60.31;96536.81;5089635;28;20406;-72
2021/11/07 11:10:17;;;;;;;8.43;5.45;;;;;;;7.91;59.60;96559.19;5088295;28;20048;-73
2021/11/07 11:13:10;;;;;;;8.00;5.50;;;;;;;8.23;59.58;96561.09;5090049;28;20093;-72
2021/11/07 11:15:43;;;;;;;6.97;4.88;;;;;;;8.51;59.86;96545.72;5088907;28;20044;-73
2021/11/07 11:18:25;;;;;;;7.55;4.93;;;;;;;8.75;56.68;96542.81;5089137;28;20419;-72
2021/11/07 11:21:09;;;;;;;7.20;3.70;;;;;;;8.82;53.59;96555.97;5089847;28;20048;-72
2021/11/07 11:23:44;;;;;;;;;;;;;;;8.87;53.52;96558.59;5088799;28;20693;-73
2021/11/07 11:26:27;;;;;;;6.18;4.15;;;;;;;8.83;53.49;96552.19;5089436;28;19949;-72
2021/11/07 11:29:04;;;;;;;3.90;2.95;;;;;;;8.95;54.58;96557.09;5108904;28;20051;-74
2021/11/07 11:31:35;;;;;;;5.30;3.25;;;;;;;9.22;52.47;96553.56;5109454;28;20051;-72
2021/11/07 11:34:08;;;;;;;5.95;3.38;;;;;;;9.13;52.71;96551.56;5109420;28;20052;-71
2021/11/07 11:36:43;;;;;;;5.50;3.40;;;;;;;9.21;51.84;96541.09;5109338;28;20134;-72
2021/11/07 11:39:14;;;;;;;4.47;2.72;;;;;;;9.45;51.38;96538.94;5109766;28;20414;-72
2021/11/07 11:41:46;;;;;;;5.25;3.25;;;;;;;9.51;51.00;96551.31;5108747;27;20079;-73
2021/11/07 11:44:15;;;;;;;4.47;2.70;;;;;;;9.71;49.95;96551.94;5109566;28;20063;-72
2021/11/07 11:46:51;;;;;;;4.43;2.95;;;;;;;9.72;49.29;96556.28;5109286;28;20511;-72
2021/11/07 11:49:41;;;;;;;4.60;3.22;;;;;;;9.83;50.24;96546.75;5108949;28;20043;-73
2021/11/07 11:52:17;;;;;;;4.38;2.90;;;;;;;9.86;49.79;96541.50;5109218;28;20074;-74
2021/11/07 11:55:00;;;;;;;5.78;3.17;;;;;;;9.75;48.18;96533.91;5108903;28;20094;-74
2021/11/07 11:57:44;;;;;;;4.78;3.00;;;;;;;9.65;50.28;96513.19;5102121;28;20052;-73
2021/11/07 12:03:08;;;;;;;4.90;2.70;;;;;;;9.94;49.54;96477.41;5074395;28;20143;-71
2021/11/07 12:05:40;;;;;;;;;;;;;;;10.12;48.73;96473.66;5089774;28;20048;-72
2021/11/07 12:08:20;;;;;;;4.53;2.65;;;;;;;10.24;47.19;96464.16;5087768;28;19973;-74
2021/11/07 12:10:53;;;;;;;5.25;2.75;;;;;;;10.29;47.52;96464.81;5089409;28;20044;-72
2021/11/07 12:13:37;;;;;;;4.32;2.50;;;;;;;10.15;46.82;96459.44;5087860;28;20154;-74
2021/11/07 12:16:10;;;;;;;3.78;2.38;;;;;;;10.12;46.68;96451.88;5088570;28;20060;-72
2021/11/07 12:18:58;;;;;;;3.47;2.30;;;;;;;10.17;47.54;96449.03;5089324;28;20590;-73
2021/11/07 12:21:25;;;;;;;4.88;1.80;;;;;;;10.24;45.73;96443.19;5087718;28;20670;-72